Terminal Aerodrome Forecast
Issued by NWS

Home | Current Version | Previous Version | Text Only | Print | Product List | Glossary On
Versions: 1 2 3 4 5 6 7 8 9 10 11 12 13 14 15 16 17
901
FTUS43 KDTX 292028 AAA
TAFDET
TAF AMD
KDET 292028Z 2920/3018 04010KT 2SM -SHRA BKN012 BKN022
     FM300100 04011KT 3SM SHRA BR OVC007
     FM301500 05012KT 6SM -SHRA BKN012 OVC025=

USA.gov is the U.S. government's official web portal to all federal, state and local government web resources and services.